sensor_id;sensor_type;location;lat;lon;timestamp;temperature;humidity
6903;DHT22;20232;49.408;8.702;2023-03-15T05:02:24;2.00;99.90
6903;DHT22;20232;49.408;8.702;2023-03-15T05:04:49;2.10;99.90
6903;DHT22;20232;49.408;8.702;2023-03-15T05:07:15;2.10;99.90
6903;DHT22;20232;49.408;8.702;2023-03-15T05:09:40;1.90;99.90
6903;DHT22;20232;49.408;8.702;2023-03-15T05:12:06;2.00;99.90
6903;DHT22;20232;49.408;8.702;2023-03-15T05:14:32;1.90;99.90
6903;DHT22;20232;49.408;8.702;2023-03-15T05:16:58;2.00;99.90
6903;DHT22;20232;49.408;8.702;2023-03-15T05:19:27;2.00;99.90
6903;DHT22;20232;49.408;8.702;2023-03-15T05:21:52;2.10;99.90
6903;DHT22;20232;49.408;8.702;2023-03-15T05:24:21;2.10;99.90
6903;DHT22;20232;49.408;8.702;2023-03-15T05:26:47;2.20;99.90
6903;DHT22;20232;49.408;8.702;2023-03-15T05:29:13;2.30;99.90
6903;DHT22;20232;49.408;8.702;2023-03-15T05:31:39;2.30;99.90
6903;DHT22;20232;49.408;8.702;2023-03-15T05:34:05;2.40;99.90
6903;DHT22;20232;49.408;8.702;2023-03-15T05:36:32;2.40;99.90
6903;DHT22;20232;49.408;8.702;2023-03-15T05:38:58;2.40;99.90
6903;DHT22;20232;49.408;8.702;2023-03-15T05:41:24;2.40;99.90
6903;DHT22;20232;49.408;8.702;2023-03-15T05:43:50;2.50;99.90
6903;DHT22;20232;49.408;8.702;2023-03-15T05:46:16;2.60;99.90
6903;DHT22;20232;49.408;8.702;2023-03-15T05:48:42;2.70;99.90
6903;DHT22;20232;49.408;8.702;2023-03-15T05:51:07;2.60;99.90
6903;DHT22;20232;49.408;8.702;2023-03-15T05:53:33;2.70;99.90
6903;DHT22;20232;49.408;8.702;2023-03-15T05:55:59;2.70;99.90
6903;DHT22;20232;49.408;8.702;2023-03-15T05:58:24;2.70;99.90
6903;DHT22;20232;49.408;8.702;2023-03-15T06:00:50;2.70;99.90
6903;DHT22;20232;49.408;8.702;2023-03-15T06:03:15;2.90;99.90
6903;DHT22;20232;49.408;8.702;2023-03-15T06:05:41;2.90;99.90
6903;DHT22;20232;49.408;8.702;2023-03-15T06:08:07;3.00;99.90
6903;DHT22;20232;49.408;8.702;2023-03-15T06:10:33;3.00;99.90
6903;DHT22;20232;49.408;8.702;2023-03-15T06:12:58;2.90;99.90
6903;DHT22;20232;49.408;8.702;2023-03-15T06:15:24;3.00;99.90
6903;DHT22;20232;49.408;8.702;2023-03-15T06:17:50;3.00;99.90
6903;DHT22;20232;49.408;8.702;2023-03-15T06:20:16;3.00;99.90
6903;DHT22;20232;49.408;8.702;2023-03-15T06:22:41;3.10;99.90
6903;DHT22;20232;49.408;8.702;2023-03-15T06:25:08;3.10;99.90
6903;DHT22;20232;49.408;8.702;2023-03-15T06:27:33;3.00;99.90
6903;DHT22;20232;49.408;8.702;2023-03-15T06:29:59;3.00;99.90
6903;DHT22;20232;49.408;8.702;2023-03-15T06:32:25;3.10;99.90
6903;DHT22;20232;49.408;8.702;2023-03-15T06:34:50;3.00;99.90
6903;DHT22;20232;49.408;8.702;2023-03-15T06:37:16;3.10;99.90
6903;DHT22;20232;49.408;8.702;2023-03-15T06:39:42;3.10;99.90
6903;DHT22;20232;49.408;8.702;2023-03-15T06:42:12;2.90;99.90
6903;DHT22;20232;49.408;8.702;2023-03-15T06:44:38;3.00;99.90
6903;DHT22;20232;49.408;8.702;2023-03-15T06:47:05;2.80;99.90
6903;DHT22;20232;49.408;8.702;2023-03-15T06:49:30;2.80;99.90
6903;DHT22;20232;49.408;8.702;2023-03-15T06:51:56;2.90;99.90
6903;DHT22;20232;49.408;8.702;2023-03-15T06:54:22;3.00;99.90
6903;DHT22;20232;49.408;8.702;2023-03-15T06:56:48;3.00;99.90
6903;DHT22;20232;49.408;8.702;2023-03-15T06:59:14;3.10;99.90
6903;DHT22;20232;49.408;8.702;2023-03-15T07:01:39;3.10;99.90
6903;DHT22;20232;49.408;8.702;2023-03-15T07:04:05;3.00;99.90
6903;DHT22;20232;49.408;8.702;2023-03-15T07:06:31;3.00;99.90
6903;DHT22;20232;49.408;8.702;2023-03-15T07:08:56;3.00;99.90
6903;DHT22;20232;49.408;8.702;2023-03-15T07:11:22;3.00;99.90
6903;DHT22;20232;49.408;8.702;2023-03-15T07:13:47;3.10;99.90
6903;DHT22;20232;49.408;8.702;2023-03-15T07:16:13;3.10;99.90
6903;DHT22;20232;49.408;8.702;2023-03-15T07:18:38;3.00;99.90
6903;DHT22;20232;49.408;8.702;2023-03-15T07:21:04;3.00;99.90
6903;DHT22;20232;49.408;8.702;2023-03-15T07:23:31;2.90;99.90
6903;DHT22;20232;49.408;8.702;2023-03-15T07:25:58;3.00;99.90
6903;DHT22;20232;49.408;8.702;2023-03-15T07:28:24;3.00;99.90
6903;DHT22;20232;49.408;8.702;2023-03-15T07:30:57;3.00;99.90
6903;DHT22;20232;49.408;8.702;2023-03-15T07:33:24;3.00;99.90
6903;DHT22;20232;49.408;8.702;2023-03-15T07:35:51;3.00;99.90
6903;DHT22;20232;49.408;8.702;2023-03-15T07:38:18;3.10;99.90
6903;DHT22;20232;49.408;8.702;2023-03-15T07:40:43;3.10;99.90
6903;DHT22;20232;49.408;8.702;2023-03-15T07:43:09;3.20;99.90
6903;DHT22;20232;49.408;8.702;2023-03-15T07:45:34;3.20;99.90
6903;DHT22;20232;49.408;8.702;2023-03-15T07:48:00;3.20;99.90
6903;DHT22;20232;49.408;8.702;2023-03-15T07:50:26;3.30;99.90
6903;DHT22;20232;49.408;8.702;2023-03-15T07:52:52;3.30;99.90
6903;DHT22;20232;49.408;8.702;2023-03-15T07:55:17;3.30;99.90
6903;DHT22;20232;49.408;8.702;2023-03-15T07:57:43;3.40;99.90
6903;DHT22;20232;49.408;8.702;2023-03-15T08:00:09;3.40;99.90
6903;DHT22;20232;49.408;8.702;2023-03-15T08:02:36;3.40;99.90
6903;DHT22;20232;49.408;8.702;2023-03-15T08:05:02;3.50;99.90
6903;DHT22;20232;49.408;8.702;2023-03-15T08:07:29;3.50;99.90
6903;DHT22;20232;49.408;8.702;2023-03-15T08:09:54;3.50;99.90
6903;DHT22;20232;49.408;8.702;2023-03-15T08:12:22;3.60;99.90
6903;DHT22;20232;49.408;8.702;2023-03-15T08:14:48;3.50;99.90
6903;DHT22;20232;49.408;8.702;2023-03-15T08:17:14;3.60;99.90
6903;DHT22;20232;49.408;8.702;2023-03-15T08:19:40;3.60;99.90
6903;DHT22;20232;49.408;8.702;2023-03-15T08:22:06;3.60;99.90
6903;DHT22;20232;49.408;8.702;2023-03-15T08:24:32;3.70;99.90
6903;DHT22;20232;49.408;8.702;2023-03-15T08:26:58;3.80;99.90
6903;DHT22;20232;49.408;8.702;2023-03-15T08:29:23;3.80;99.90
6903;DHT22;20232;49.408;8.702;2023-03-15T08:31:49;3.80;99.90
6903;DHT22;20232;49.408;8.702;2023-03-15T08:34:14;3.80;99.90
6903;DHT22;20232;49.408;8.702;2023-03-15T08:36:40;3.90;99.90
6903;DHT22;20232;49.408;8.702;2023-03-15T08:39:06;4.00;99.90
6903;DHT22;20232;49.408;8.702;2023-03-15T08:41:33;3.90;99.90
6903;DHT22;20232;49.408;8.702;2023-03-15T08:43:59;4.00;99.90
6903;DHT22;20232;49.408;8.702;2023-03-15T08:46:26;4.00;99.90
6903;DHT22;20232;49.408;8.702;2023-03-15T08:48:52;4.00;99.90
6903;DHT22;20232;49.408;8.702;2023-03-15T08:51:17;3.90;99.90
6903;DHT22;20232;49.408;8.702;2023-03-15T08:53:44;3.90;99.90
6903;DHT22;20232;49.408;8.702;2023-03-15T08:56:09;3.90;99.90
6903;DHT22;20232;49.408;8.702;2023-03-15T08:58:35;3.80;99.90
6903;DHT22;20232;49.408;8.702;2023-03-15T09:01:01;3.80;99.90
6903;DHT22;20232;49.408;8.702;2023-03-15T09:03:29;3.70;99.90
6903;DHT22;20232;49.408;8.702;2023-03-15T09:05:57;3.60;99.90
6903;DHT22;20232;49.408;8.702;2023-03-15T09:08:24;3.50;99.90
6903;DHT22;20232;49.408;8.702;2023-03-15T09:10:59;3.40;99.90
6903;DHT22;20232;49.408;8.702;2023-03-15T09:13:26;3.30;99.90
6903;DHT22;20232;49.408;8.702;2023-03-15T09:15:52;3.30;99.90
6903;DHT22;20232;49.408;8.702;2023-03-15T09:18:19;3.40;99.90
6903;DHT22;20232;49.408;8.702;2023-03-15T09:20:45;3.40;99.90
6903;DHT22;20232;49.408;8.702;2023-03-15T09:23:11;3.40;99.90
6903;DHT22;20232;49.408;8.702;2023-03-15T09:25:37;3.50;99.90
6903;DHT22;20232;49.408;8.702;2023-03-15T09:28:03;3.40;99.90
6903;DHT22;20232;49.408;8.702;2023-03-15T09:30:29;3.30;99.90
6903;DHT22;20232;49.408;8.702;2023-03-15T09:32:55;3.20;99.90
6903;DHT22;20232;49.408;8.702;2023-03-15T09:35:20;3.10;99.90
6903;DHT22;20232;49.408;8.702;2023-03-15T09:37:47;3.00;99.90
6903;DHT22;20232;49.408;8.702;2023-03-15T09:48:43;2.90;99.90
6903;DHT22;20232;49.408;8.702;2023-03-15T09:54:15;3.00;99.90
6903;DHT22;20232;49.408;8.702;2023-03-15T09:57:03;3.10;99.90
6903;DHT22;20232;49.408;8.702;2023-03-15T09:59:33;3.10;99.90
6903;DHT22;20232;49.408;8.702;2023-03-15T10:02:14;3.20;99.90
6903;DHT22;20232;49.408;8.702;2023-03-15T10:04:44;3.10;99.90
6903;DHT22;20232;49.408;8.702;2023-03-15T10:07:13;3.00;99.90
6903;DHT22;20232;49.408;8.702;2023-03-15T10:09:39;2.90;99.90
6903;DHT22;20232;49.408;8.702;2023-03-15T10:12:11;2.80;99.90
6903;DHT22;20232;49.408;8.702;2023-03-15T10:14:48;2.70;99.90
6903;DHT22;20232;49.408;8.702;2023-03-15T10:17:37;2.60;99.90
6903;DHT22;20232;49.408;8.702;2023-03-15T10:20:18;2.50;99.90
6903;DHT22;20232;49.408;8.702;2023-03-15T10:22:57;2.50;99.90
6903;DHT22;20232;49.408;8.702;2023-03-15T10:25:28;2.60;99.90
6903;DHT22;20232;49.408;8.702;2023-03-15T10:28:03;2.60;99.90
6903;DHT22;20232;49.408;8.702;2023-03-15T10:30:31;2.70;99.90
6903;DHT22;20232;49.408;8.702;2023-03-15T10:33:07;2.70;99.90
6903;DHT22;20232;49.408;8.702;2023-03-15T10:35:37;2.60;99.90
6903;DHT22;20232;49.408;8.702;2023-03-15T10:38:16;2.60;99.90
6903;DHT22;20232;49.408;8.702;2023-03-15T10:40:50;2.60;99.90
6903;DHT22;20232;49.408;8.702;2023-03-15T10:43:31;2.70;99.90
6903;DHT22;20232;49.408;8.702;2023-03-15T10:48:32;3.00;99.90
6903;DHT22;20232;49.408;8.702;2023-03-15T10:51:06;3.10;99.90
6903;DHT22;20232;49.408;8.702;2023-03-15T10:56:24;3.20;99.90
6903;DHT22;20232;49.408;8.702;2023-03-15T10:58:52;3.20;99.90
6903;DHT22;20232;49.408;8.702;2023-03-15T11:01:31;3.30;99.90
6903;DHT22;20232;49.408;8.702;2023-03-15T11:04:20;3.40;99.90
6903;DHT22;20232;49.408;8.702;2023-03-15T11:07:00;3.50;99.90
6903;DHT22;20232;49.408;8.702;2023-03-15T11:09:37;3.60;99.90
6903;DHT22;20232;49.408;8.702;2023-03-15T11:12:26;3.60;99.90
6903;DHT22;20232;49.408;8.702;2023-03-15T11:14:59;3.70;99.90
6903;DHT22;20232;49.408;8.702;2023-03-15T11:17:30;3.80;99.90
6903;DHT22;20232;49.408;8.702;2023-03-15T11:20:14;3.80;99.90
6903;DHT22;20232;49.408;8.702;2023-03-15T11:22:43;3.90;99.90
6903;DHT22;20232;49.408;8.702;2023-03-15T11:25:15;4.00;99.90
6903;DHT22;20232;49.408;8.702;2023-03-15T11:27:43;4.00;99.90
6903;DHT22;20232;49.408;8.702;2023-03-15T11:30:13;4.10;99.90
6903;DHT22;20232;49.408;8.702;2023-03-15T11:32:39;4.20;99.90
6903;DHT22;20232;49.408;8.702;2023-03-15T11:35:06;4.10;99.90
6903;DHT22;20232;49.408;8.702;2023-03-15T11:37:48;4.20;99.90
6903;DHT22;20232;49.408;8.702;2023-03-15T11:43:05;4.40;99.90
6903;DHT22;20232;49.408;8.702;2023-03-15T11:45:43;4.50;99.90
6903;DHT22;20232;49.408;8.702;2023-03-15T11:48:34;4.60;99.90
6903;DHT22;20232;49.408;8.702;2023-03-15T11:51:06;4.70;99.90
6903;DHT22;20232;49.408;8.702;2023-03-15T11:53:44;4.60;99.90
6903;DHT22;20232;49.408;8.702;2023-03-15T11:56:25;4.60;99.90
6903;DHT22;20232;49.408;8.702;2023-03-15T11:59:07;4.60;99.90
6903;DHT22;20232;49.408;8.702;2023-03-15T12:01:35;4.50;99.90
6903;DHT22;20232;49.408;8.702;2023-03-15T12:10:18;4.50;99.90
6903;DHT22;20232;49.408;8.702;2023-03-15T12:12:47;4.80;99.90
6903;DHT22;20232;49.408;8.702;2023-03-15T12:18:04;5.30;99.90
6903;DHT22;20232;49.408;8.702;2023-03-15T12:20:41;5.50;99.90
6903;DHT22;20232;49.408;8.702;2023-03-15T12:25:54;5.60;99.90
6903;DHT22;20232;49.408;8.702;2023-03-15T12:28:41;5.60;99.90
6903;DHT22;20232;49.408;8.702;2023-03-15T12:31:11;5.60;99.90
6903;DHT22;20232;49.408;8.702;2023-03-15T12:33:54;5.70;99.90
6903;DHT22;20232;49.408;8.702;2023-03-15T12:36:37;5.70;99.90
6903;DHT22;20232;49.408;8.702;2023-03-15T12:41:45;5.60;99.90
6903;DHT22;20232;49.408;8.702;2023-03-15T12:47:02;5.50;99.90
6903;DHT22;20232;49.408;8.702;2023-03-15T12:49:32;5.50;99.90
6903;DHT22;20232;49.408;8.702;2023-03-15T12:55:09;5.40;99.90
6903;DHT22;20232;49.408;8.702;2023-03-15T12:57:39;5.20;99.90
6903;DHT22;20232;49.408;8.702;2023-03-15T13:00:15;5.00;99.90
6903;DHT22;20232;49.408;8.702;2023-03-15T13:05:29;4.80;99.90
6903;DHT22;20232;49.408;8.702;2023-03-15T13:08:20;4.80;99.90
6903;DHT22;20232;49.408;8.702;2023-03-15T13:10:52;5.00;99.90
6903;DHT22;20232;49.408;8.702;2023-03-15T13:18:33;5.20;99.90
6903;DHT22;20232;49.408;8.702;2023-03-15T13:21:25;5.20;99.90
6903;DHT22;20232;49.408;8.702;2023-03-15T13:23:56;5.30;99.90
6903;DHT22;20232;49.408;8.702;2023-03-15T13:26:40;5.30;99.90
6903;DHT22;20232;49.408;8.702;2023-03-15T13:29:18;5.30;99.90
6903;DHT22;20232;49.408;8.702;2023-03-15T13:31:46;5.40;99.90
6903;DHT22;20232;49.408;8.702;2023-03-15T13:34:23;5.40;99.90
6903;DHT22;20232;49.408;8.702;2023-03-15T13:36:55;5.40;99.90
6903;DHT22;20232;49.408;8.702;2023-03-15T13:39:27;5.50;99.90
6903;DHT22;20232;49.408;8.702;2023-03-15T13:42:18;5.90;99.90
6903;DHT22;20232;49.408;8.702;2023-03-15T13:44:43;6.40;99.90
6903;DHT22;20232;49.408;8.702;2023-03-15T13:47:18;6.70;99.90
6903;DHT22;20232;49.408;8.702;2023-03-15T13:49:46;7.10;99.90
6903;DHT22;20232;49.408;8.702;2023-03-15T13:52:18;7.30;99.90
6903;DHT22;20232;49.408;8.702;2023-03-15T13:54:44;7.60;99.90
6903;DHT22;20232;49.408;8.702;2023-03-15T13:57:17;7.70;99.90
6903;DHT22;20232;49.408;8.702;2023-03-15T14:02:20;7.50;99.90
6903;DHT22;20232;49.408;8.702;2023-03-15T14:04:56;7.40;99.90
6903;DHT22;20232;49.408;8.702;2023-03-15T14:07:32;7.50;99.90
6903;DHT22;20232;49.408;8.702;2023-03-15T14:12:52;8.10;99.90
6903;DHT22;20232;49.408;8.702;2023-03-15T14:15:40;9.40;99.90
6903;DHT22;20232;49.408;8.702;2023-03-15T14:20:39;11.10;99.90
6903;DHT22;20232;49.408;8.702;2023-03-15T14:23:14;11.40;99.90
6903;DHT22;20232;49.408;8.702;2023-03-15T14:25:40;11.90;99.90
6903;DHT22;20232;49.408;8.702;2023-03-15T14:28:12;12.40;99.90
6903;DHT22;20232;49.408;8.702;2023-03-15T14:30:39;12.80;99.90
6903;DHT22;20232;49.408;8.702;2023-03-15T14:33:05;13.10;99.90
6903;DHT22;20232;49.408;8.702;2023-03-15T14:38:06;13.00;99.90
6903;DHT22;20232;49.408;8.702;2023-03-15T14:40:37;12.90;99.90
6903;DHT22;20232;49.408;8.702;2023-03-15T14:43:05;12.70;99.90
6903;DHT22;20232;49.408;8.702;2023-03-15T14:45:32;13.00;99.90
6903;DHT22;20232;49.408;8.702;2023-03-15T14:48:11;13.30;99.90
6903;DHT22;20232;49.408;8.702;2023-03-15T14:50:40;13.30;99.90
6903;DHT22;20232;49.408;8.702;2023-03-15T14:53:07;13.00;99.90
6903;DHT22;20232;49.408;8.702;2023-03-15T14:55:35;12.80;99.90
6903;DHT22;20232;49.408;8.702;2023-03-15T14:58:03;12.60;99.90
6903;DHT22;20232;49.408;8.702;2023-03-15T15:00:29;12.80;99.90
6903;DHT22;20232;49.408;8.702;2023-03-15T15:02:57;13.30;99.90
6903;DHT22;20232;49.408;8.702;2023-03-15T15:05:31;13.50;99.90
6903;DHT22;20232;49.408;8.702;2023-03-15T15:08:03;13.00;99.90
6903;DHT22;20232;49.408;8.702;2023-03-15T15:10:30;12.20;99.90
6903;DHT22;20232;49.408;8.702;2023-03-15T15:12:56;11.40;99.90
6903;DHT22;20232;49.408;8.702;2023-03-15T15:15:22;10.80;99.90
6903;DHT22;20232;49.408;8.702;2023-03-15T15:17:47;10.20;99.90
6903;DHT22;20232;49.408;8.702;2023-03-15T15:20:14;9.50;99.90
6903;DHT22;20232;49.408;8.702;2023-03-15T15:22:41;9.00;99.90
6903;DHT22;20232;49.408;8.702;2023-03-15T15:25:21;8.80;99.90
6903;DHT22;20232;49.408;8.702;2023-03-15T15:27:48;8.50;99.90
6903;DHT22;20232;49.408;8.702;2023-03-15T15:30:16;8.50;99.90
6903;DHT22;20232;49.408;8.702;2023-03-15T15:32:43;8.50;99.90
6903;DHT22;20232;49.408;8.702;2023-03-15T15:35:13;8.50;99.90
6903;DHT22;20232;49.408;8.702;2023-03-15T15:37:40;8.90;99.90
6903;DHT22;20232;49.408;8.702;2023-03-15T15:40:15;9.40;99.90
6903;DHT22;20232;49.408;8.702;2023-03-15T15:42:42;9.80;99.90
6903;DHT22;20232;49.408;8.702;2023-03-15T15:45:10;10.20;99.90
6903;DHT22;20232;49.408;8.702;2023-03-15T15:47:37;10.50;99.90
6903;DHT22;20232;49.408;8.702;2023-03-15T15:50:03;11.00;99.90
6903;DHT22;20232;49.408;8.702;2023-03-15T15:52:29;11.00;99.90
6903;DHT22;20232;49.408;8.702;2023-03-15T15:54:55;10.70;99.90
6903;DHT22;20232;49.408;8.702;2023-03-15T15:57:21;10.60;99.90
6903;DHT22;20232;49.408;8.702;2023-03-15T15:59:51;10.40;99.90
6903;DHT22;20232;49.408;8.702;2023-03-15T16:02:17;10.20;99.90
6903;DHT22;20232;49.408;8.702;2023-03-15T16:04:47;10.00;99.90
6903;DHT22;20232;49.408;8.702;2023-03-15T16:07:13;9.50;99.90
6903;DHT22;20232;49.408;8.702;2023-03-15T16:09:41;9.10;99.90
6903;DHT22;20232;49.408;8.702;2023-03-15T16:12:15;8.80;99.90
6903;DHT22;20232;49.408;8.702;2023-03-15T16:14:42;8.70;99.90
6903;DHT22;20232;49.408;8.702;2023-03-15T16:17:15;8.70;99.90
6903;DHT22;20232;49.408;8.702;2023-03-15T16:19:42;8.70;99.90
6903;DHT22;20232;49.408;8.702;2023-03-15T16:22:08;8.50;99.90
6903;DHT22;20232;49.408;8.702;2023-03-15T16:24:34;8.40;99.90
6903;DHT22;20232;49.408;8.702;2023-03-15T16:27:02;8.30;99.90
6903;DHT22;20232;49.408;8.702;2023-03-15T16:29:37;8.20;99.90
6903;DHT22;20232;49.408;8.702;2023-03-15T16:32:03;8.10;99.90
6903;DHT22;20232;49.408;8.702;2023-03-15T16:34:29;8.00;99.90
6903;DHT22;20232;49.408;8.702;2023-03-15T16:36:59;7.80;99.90
6903;DHT22;20232;49.408;8.702;2023-03-15T16:39:26;7.70;99.90
6903;DHT22;20232;49.408;8.702;2023-03-15T16:41:51;7.60;99.90
6903;DHT22;20232;49.408;8.702;2023-03-15T16:44:19;7.40;99.90
6903;DHT22;20232;49.408;8.702;2023-03-15T16:46:46;7.30;99.90
6903;DHT22;20232;49.408;8.702;2023-03-15T16:49:12;7.30;99.90
6903;DHT22;20232;49.408;8.702;2023-03-15T16:51:41;7.30;99.90
6903;DHT22;20232;49.408;8.702;2023-03-15T16:54:08;7.20;99.90
6903;DHT22;20232;49.408;8.702;2023-03-15T16:56:35;7.10;99.90
6903;DHT22;20232;49.408;8.702;2023-03-15T16:59:02;7.10;99.90
6903;DHT22;20232;49.408;8.702;2023-03-15T17:01:28;7.00;99.90
6903;DHT22;20232;49.408;8.702;2023-03-15T17:03:54;6.90;99.90
6903;DHT22;20232;49.408;8.702;2023-03-15T17:06:21;6.80;99.90
6903;DHT22;20232;49.408;8.702;2023-03-15T17:08:54;6.60;99.90
6903;DHT22;20232;49.408;8.702;2023-03-15T17:11:21;6.60;99.90
6903;DHT22;20232;49.408;8.702;2023-03-15T17:13:47;6.50;99.90
6903;DHT22;20232;49.408;8.702;2023-03-15T17:16:13;6.40;99.90
6903;DHT22;20232;49.408;8.702;2023-03-15T17:18:41;6.40;99.90
6903;DHT22;20232;49.408;8.702;2023-03-15T17:21:10;6.20;99.90
6903;DHT22;20232;49.408;8.702;2023-03-15T17:23:37;6.00;99.90
6903;DHT22;20232;49.408;8.702;2023-03-15T17:26:04;5.90;99.90
6903;DHT22;20232;49.408;8.702;2023-03-15T17:28:30;5.70;99.90
6903;DHT22;20232;49.408;8.702;2023-03-15T17:30:55;5.40;99.90
6903;DHT22;20232;49.408;8.702;2023-03-15T17:33:21;5.10;99.90
6903;DHT22;20232;49.408;8.702;2023-03-15T17:35:51;4.90;99.90
6903;DHT22;20232;49.408;8.702;2023-03-15T17:38:20;4.70;99.90
6903;DHT22;20232;49.408;8.702;2023-03-15T17:40:49;4.60;99.90
6903;DHT22;20232;49.408;8.702;2023-03-15T17:43:15;4.60;99.90
6903;DHT22;20232;49.408;8.702;2023-03-15T17:45:41;4.40;99.90
6903;DHT22;20232;49.408;8.702;2023-03-15T17:48:07;4.30;99.90
6903;DHT22;20232;49.408;8.702;2023-03-15T17:50:33;4.30;99.90
6903;DHT22;20232;49.408;8.702;2023-03-15T17:53:02;4.30;99.90
6903;DHT22;20232;49.408;8.702;2023-03-15T17:55:29;4.20;99.90
6903;DHT22;20232;49.408;8.702;2023-03-15T17:57:55;4.20;99.90
6903;DHT22;20232;49.408;8.702;2023-03-15T18:00:22;4.20;99.90
6903;DHT22;20232;49.408;8.702;2023-03-15T18:02:49;4.10;99.90
6903;DHT22;20232;49.408;8.702;2023-03-15T18:05:23;4.00;99.90
6903;DHT22;20232;49.408;8.702;2023-03-15T18:07:49;3.90;99.90
6903;DHT22;20232;49.408;8.702;2023-03-15T18:10:17;4.00;99.90
6903;DHT22;20232;49.408;8.702;2023-03-15T18:12:44;4.00;99.90
6903;DHT22;20232;49.408;8.702;2023-03-15T18:15:13;4.00;99.90
6903;DHT22;20232;49.408;8.702;2023-03-15T18:17:39;4.00;99.90
6903;DHT22;20232;49.408;8.702;2023-03-15T18:20:07;3.90;99.90
6903;DHT22;20232;49.408;8.702;2023-03-15T18:22:34;3.80;99.90
6903;DHT22;20232;49.408;8.702;2023-03-15T18:25:01;3.80;99.90
6903;DHT22;20232;49.408;8.702;2023-03-15T18:27:27;3.80;99.90
6903;DHT22;20232;49.408;8.702;2023-03-15T18:29:53;3.80;99.90
6903;DHT22;20232;49.408;8.702;2023-03-15T18:32:19;3.70;99.90
6903;DHT22;20232;49.408;8.702;2023-03-15T18:34:44;3.70;99.90
6903;DHT22;20232;49.408;8.702;2023-03-15T18:37:10;3.70;99.90
6903;DHT22;20232;49.408;8.702;2023-03-15T18:39:36;3.70;99.90
6903;DHT22;20232;49.408;8.702;2023-03-15T18:42:03;3.60;99.90
6903;DHT22;20232;49.408;8.702;2023-03-15T18:44:29;3.60;99.90
6903;DHT22;20232;49.408;8.702;2023-03-15T18:46:55;3.60;99.90
6903;DHT22;20232;49.408;8.702;2023-03-15T18:49:21;3.60;99.90
6903;DHT22;20232;49.408;8.702;2023-03-15T18:51:46;3.60;99.90
6903;DHT22;20232;49.408;8.702;2023-03-15T18:54:12;3.50;99.90
6903;DHT22;20232;49.408;8.702;2023-03-15T18:56:37;3.40;99.90
6903;DHT22;20232;49.408;8.702;2023-03-15T18:59:03;3.40;99.90
6903;DHT22;20232;49.408;8.702;2023-03-15T19:01:29;3.40;99.90
6903;DHT22;20232;49.408;8.702;2023-03-15T19:03:55;3.40;99.90
6903;DHT22;20232;49.408;8.702;2023-03-15T19:06:21;3.40;99.90
6903;DHT22;20232;49.408;8.702;2023-03-15T19:08:47;3.40;99.90
6903;DHT22;20232;49.408;8.702;2023-03-15T19:11:18;3.40;99.90
6903;DHT22;20232;49.408;8.702;2023-03-15T19:13:44;3.40;99.90
6903;DHT22;20232;49.408;8.702;2023-03-15T19:16:21;3.30;99.90
6903;DHT22;20232;49.408;8.702;2023-03-15T19:18:47;3.30;99.90
6903;DHT22;20232;49.408;8.702;2023-03-15T19:21:14;3.30;99.90
6903;DHT22;20232;49.408;8.702;2023-03-15T19:23:40;3.20;99.90
6903;DHT22;20232;49.408;8.702;2023-03-15T19:26:05;3.20;99.90
6903;DHT22;20232;49.408;8.702;2023-03-15T19:28:31;3.20;99.90
6903;DHT22;20232;49.408;8.702;2023-03-15T19:30:57;3.20;99.90
6903;DHT22;20232;49.408;8.702;2023-03-15T19:33:23;3.20;99.90
6903;DHT22;20232;49.408;8.702;2023-03-15T19:35:48;3.20;99.90
6903;DHT22;20232;49.408;8.702;2023-03-15T19:38:14;3.10;99.90
6903;DHT22;20232;49.408;8.702;2023-03-15T19:40:40;3.10;99.90
6903;DHT22;20232;49.408;8.702;2023-03-15T19:43:05;3.10;99.90
6903;DHT22;20232;49.408;8.702;2023-03-15T19:45:31;3.00;99.90
6903;DHT22;20232;49.408;8.702;2023-03-15T19:47:57;3.00;99.90
6903;DHT22;20232;49.408;8.702;2023-03-15T19:50:22;3.00;99.90
6903;DHT22;20232;49.408;8.702;2023-03-15T19:52:48;3.00;99.90
6903;DHT22;20232;49.408;8.702;2023-03-15T19:55:19;3.00;99.90
6903;DHT22;20232;49.408;8.702;2023-03-15T19:57:44;3.00;99.90
6903;DHT22;20232;49.408;8.702;2023-03-15T20:00:12;3.00;99.90
6903;DHT22;20232;49.408;8.702;2023-03-15T20:02:39;2.90;99.90
6903;DHT22;20232;49.408;8.702;2023-03-15T20:05:10;2.90;99.90
6903;DHT22;20232;49.408;8.702;2023-03-15T20:07:36;2.90;99.90
6903;DHT22;20232;49.408;8.702;2023-03-15T20:10:03;2.80;99.90
6903;DHT22;20232;49.408;8.702;2023-03-15T20:12:29;2.80;99.90
6903;DHT22;20232;49.408;8.702;2023-03-15T20:14:54;2.80;99.90
6903;DHT22;20232;49.408;8.702;2023-03-15T20:17:20;2.80;99.90
6903;DHT22;20232;49.408;8.702;2023-03-15T20:19:47;2.80;99.90
6903;DHT22;20232;49.408;8.702;2023-03-15T20:22:13;2.70;99.90
6903;DHT22;20232;49.408;8.702;2023-03-15T20:24:39;2.70;99.90
6903;DHT22;20232;49.408;8.702;2023-03-15T20:27:06;2.70;99.90
6903;DHT22;20232;49.408;8.702;2023-03-15T20:29:32;2.60;99.90
6903;DHT22;20232;49.408;8.702;2023-03-15T20:31:57;2.70;99.90
6903;DHT22;20232;49.408;8.702;2023-03-15T20:34:23;2.60;99.90
6903;DHT22;20232;49.408;8.702;2023-03-15T20:36:49;2.60;99.90
6903;DHT22;20232;49.408;8.702;2023-03-15T20:39:17;2.60;99.90
6903;DHT22;20232;49.408;8.702;2023-03-15T20:41:43;2.60;99.90
6903;DHT22;20232;49.408;8.702;2023-03-15T20:44:08;2.50;99.90
6903;DHT22;20232;49.408;8.702;2023-03-15T20:46:34;2.50;99.90
6903;DHT22;20232;49.408;8.702;2023-03-15T20:49:00;2.50;99.90
6903;DHT22;20232;49.408;8.702;2023-03-15T20:51:25;2.50;99.90
6903;DHT22;20232;49.408;8.702;2023-03-15T20:53:51;2.50;99.90
6903;DHT22;20232;49.408;8.702;2023-03-15T20:56:16;2.50;99.90
6903;DHT22;20232;49.408;8.702;2023-03-15T20:58:43;2.40;99.90
6903;DHT22;20232;49.408;8.702;2023-03-15T21:01:10;2.40;99.90
6903;DHT22;20232;49.408;8.702;2023-03-15T21:03:39;2.40;99.90
6903;DHT22;20232;49.408;8.702;2023-03-15T21:06:06;2.30;99.90
6903;DHT22;20232;49.408;8.702;2023-03-15T21:08:32;2.30;99.90
6903;DHT22;20232;49.408;8.702;2023-03-15T21:10:59;2.30;99.90
6903;DHT22;20232;49.408;8.702;2023-03-15T21:13:25;2.30;99.90
6903;DHT22;20232;49.408;8.702;2023-03-15T21:15:51;2.30;99.90
6903;DHT22;20232;49.408;8.702;2023-03-15T21:18:18;2.20;99.90
6903;DHT22;20232;49.408;8.702;2023-03-15T21:20:44;2.10;99.90
6903;DHT22;20232;49.408;8.702;2023-03-15T21:23:10;2.10;99.90
6903;DHT22;20232;49.408;8.702;2023-03-15T21:25:36;2.10;99.90
6903;DHT22;20232;49.408;8.702;2023-03-15T21:28:02;2.00;99.90
6903;DHT22;20232;49.408;8.702;2023-03-15T21:30:28;2.00;99.90
6903;DHT22;20232;49.408;8.702;2023-03-15T21:32:54;2.00;99.90
6903;DHT22;20232;49.408;8.702;2023-03-15T21:35:20;1.90;99.90
6903;DHT22;20232;49.408;8.702;2023-03-15T21:37:46;1.90;99.90
6903;DHT22;20232;49.408;8.702;2023-03-15T21:40:13;2.00;99.90
6903;DHT22;20232;49.408;8.702;2023-03-15T21:42:39;2.10;99.90
6903;DHT22;20232;49.408;8.702;2023-03-15T21:45:06;2.10;99.90
6903;DHT22;20232;49.408;8.702;2023-03-15T21:47:33;2.10;99.90
6903;DHT22;20232;49.408;8.702;2023-03-15T21:49:58;2.00;99.90
6903;DHT22;20232;49.408;8.702;2023-03-15T21:52:24;2.00;99.90
6903;DHT22;20232;49.408;8.702;2023-03-15T21:54:52;1.90;99.90
6903;DHT22;20232;49.408;8.702;2023-03-15T21:57:21;1.90;99.90
6903;DHT22;20232;49.408;8.702;2023-03-15T21:59:47;1.90;99.90
6903;DHT22;20232;49.408;8.702;2023-03-15T22:02:13;1.90;99.90
6903;DHT22;20232;49.408;8.702;2023-03-15T22:04:39;1.80;99.90
6903;DHT22;20232;49.408;8.702;2023-03-15T22:07:06;1.80;99.90